Time;durP1;ratioP1;P1;durP2;ratioP2;P2;SDS_P1;SDS_P2;PMS_P1;PMS_P2;Temp;Humidity;BMP_temperature;BMP_pressure;BME280_temperature;BME280_humidity;BME280_pressure;Samples;Min_cycle;Max_cycle;Signal;HPM_P1;HPM_P2
2023/11/25 00:01:16;;;;;;;4.72;1.02;;;;;;;;;;4914630;29;20306;-85
2023/11/25 00:03:41;;;;;;;3.28;1.23;;;;;;;;;;4914883;29;20531;-85
2023/11/25 00:06:07;;;;;;;1.75;1.00;;;;;;;;;;4925003;29;20056;-85
2023/11/25 00:08:32;;;;;;;6.32;1.13;;;;;;;;;;4917055;29;20032;-85
2023/11/25 00:10:57;;;;;;;3.63;0.93;;;;;;;;;;4915962;29;20562;-85
2023/11/25 00:13:23;;;;;;;3.53;0.90;;;;;;;;;;4916087;29;20032;-85
2023/11/25 00:15:48;;;;;;;7.10;1.30;;;;;;;;;;4932040;29;20032;-85
2023/11/25 00:18:14;;;;;;;6.38;1.38;;;;;;;;;;4932430;29;20020;-85
2023/11/25 00:20:39;;;;;;;4.43;1.10;;;;;;;;;;4932017;29;20032;-85
2023/11/25 00:23:04;;;;;;;4.90;0.90;;;;;;;;;;4916986;29;20053;-85
2023/11/25 00:25:30;;;;;;;4.72;1.35;;;;;;;;;;4915939;29;20270;-85
2023/11/25 00:27:55;;;;;;;4.03;0.88;;;;;;;;;;4912998;29;20530;-85
2023/11/25 00:30:20;;;;;;;1.80;0.73;;;;;;;;;;4914255;29;20028;-85
2023/11/25 00:32:46;;;;;;;4.78;0.90;;;;;;;;;;4928802;29;20032;-85
2023/11/25 00:35:11;;;;;;;1.90;0.68;;;;;;;;;;4928617;29;20024;-85
2023/11/25 00:37:37;;;;;;;5.88;1.30;;;;;;;;;;4912994;29;20021;-85
2023/11/25 00:40:07;;;;;;;4.10;1.05;;;;;;;;;;4929157;29;20024;-85
2023/11/25 00:42:34;;;;;;;2.00;0.77;;;;;;;;;;4914251;29;20035;-85
2023/11/25 00:44:59;;;;;;;2.05;0.70;;;;;;;;;;4925253;29;20016;-85
2023/11/25 00:47:27;;;;;;;7.63;1.37;;;;;;;;;;4928571;29;20377;-85
2023/11/25 00:49:52;;;;;;;2.47;0.95;;;;;;;;;;4913861;29;20315;-85
2023/11/25 00:52:18;;;;;;;3.97;0.75;;;;;;;;;;4930645;29;20522;-85
2023/11/25 00:54:43;;;;;;;3.90;1.00;;;;;;;;;;4929041;29;20024;-85
2023/11/25 00:57:08;;;;;;;6.63;1.20;;;;;;;;;;4915779;29;20016;-85
2023/11/25 00:59:33;;;;;;;1.33;0.73;;;;;;;;;;4916057;29;20274;-85
2023/11/25 01:01:59;;;;;;;9.63;0.90;;;;;;;;;;4915523;29;20082;-85
2023/11/25 01:04:24;;;;;;;5.25;1.15;;;;;;;;;;4930141;29;20300;-85
2023/11/25 01:06:49;;;;;;;1.67;0.63;;;;;;;;;;4929780;29;20031;-85
2023/11/25 01:09:16;;;;;;;4.67;0.90;;;;;;;;;;4907408;29;20461;-85
2023/11/25 01:11:41;;;;;;;4.13;1.00;;;;;;;;;;4930493;29;20271;-85
2023/11/25 01:14:08;;;;;;;6.00;1.00;;;;;;;;;;4913227;29;20024;-85
2023/11/25 01:16:33;;;;;;;7.78;1.17;;;;;;;;;;4915491;29;20056;-85
2023/11/25 01:18:58;;;;;;;3.58;0.93;;;;;;;;;;4930481;29;20545;-85
2023/11/25 01:21:23;;;;;;;5.10;0.83;;;;;;;;;;4929581;29;20042;-85
2023/11/25 01:23:49;;;;;;;4.07;0.77;;;;;;;;;;4929340;29;20275;-84
2023/11/25 01:26:14;;;;;;;2.50;0.70;;;;;;;;;;4911663;29;20302;-84
2023/11/25 01:28:42;;;;;;;3.00;0.55;;;;;;;;;;4922240;29;20028;-85
2023/11/25 01:31:07;;;;;;;3.25;0.85;;;;;;;;;;4913228;29;20028;-85
2023/11/25 01:33:32;;;;;;;2.35;0.50;;;;;;;;;;4929898;29;20032;-84
2023/11/25 01:35:58;;;;;;;10.88;1.42;;;;;;;;;;4907241;29;20109;-84
2023/11/25 01:38:23;;;;;;;5.00;0.90;;;;;;;;;;4924055;29;20396;-84
2023/11/25 01:40:49;;;;;;;6.30;0.60;;;;;;;;;;4927563;29;20445;-84
2023/11/25 01:43:14;;;;;;;6.70;0.73;;;;;;;;;;4902612;29;20299;-84
2023/11/25 01:45:40;;;;;;;7.25;0.90;;;;;;;;;;4910769;29;20051;-84
2023/11/25 01:48:05;;;;;;;7.40;0.77;;;;;;;;;;4915022;29;20024;-84
2023/11/25 01:50:36;;;;;;;7.13;0.88;;;;;;;;;;4908886;29;20025;-84
2023/11/25 01:53:02;;;;;;;2.00;0.68;;;;;;;;;;4921780;29;20087;-84
2023/11/25 01:55:28;;;;;;;2.00;0.65;;;;;;;;;;4911837;29;20424;-84
2023/11/25 01:57:54;;;;;;;3.20;0.80;;;;;;;;;;4902927;29;20044;-84
2023/11/25 02:00:20;;;;;;;2.50;0.57;;;;;;;;;;4914400;29;20392;-84
2023/11/25 02:02:49;;;;;;;2.75;0.90;;;;;;;;;;4927889;29;20039;-84
2023/11/25 02:05:14;;;;;;;2.33;0.63;;;;;;;;;;4929932;29;20425;-84
2023/11/25 02:07:41;;;;;;;2.83;0.57;;;;;;;;;;4926446;29;20024;-84
2023/11/25 02:10:06;;;;;;;6.57;1.08;;;;;;;;;;4908866;29;20016;-84
2023/11/25 02:12:32;;;;;;;5.93;0.70;;;;;;;;;;4914151;29;20392;-84
2023/11/25 02:14:57;;;;;;;4.15;1.05;;;;;;;;;;4905777;29;20032;-84
2023/11/25 02:17:22;;;;;;;3.25;0.60;;;;;;;;;;4910513;29;20032;-84
2023/11/25 02:19:48;;;;;;;3.28;0.60;;;;;;;;;;4924191;29;20035;-84
2023/11/25 02:22:15;;;;;;;6.55;0.75;;;;;;;;;;4910970;29;20028;-84
2023/11/25 02:24:41;;;;;;;2.67;0.90;;;;;;;;;;4912809;29;20062;-84
2023/11/25 02:27:07;;;;;;;4.65;0.80;;;;;;;;;;4928089;29;20103;-84
2023/11/25 02:29:33;;;;;;;5.00;1.13;;;;;;;;;;4917603;29;20016;-84
2023/11/25 02:32:03;;;;;;;4.65;0.98;;;;;;;;;;4925314;29;20030;-84
2023/11/25 02:34:29;;;;;;;2.72;0.77;;;;;;;;;;4912953;29;20034;-84
2023/11/25 02:36:54;;;;;;;1.83;0.43;;;;;;;;;;4909641;29;20020;-84
2023/11/25 02:39:19;;;;;;;4.03;0.80;;;;;;;;;;4911278;29;20031;-84
2023/11/25 02:41:49;;;;;;;4.83;0.97;;;;;;;;;;4910658;29;20468;-84
2023/11/25 02:44:14;;;;;;;6.72;1.10;;;;;;;;;;4923302;29;21074;-84
2023/11/25 02:46:42;;;;;;;1.85;0.75;;;;;;;;;;4928598;29;20078;-84
2023/11/25 02:49:07;;;;;;;4.65;1.00;;;;;;;;;;4923945;29;20028;-84
2023/11/25 02:51:33;;;;;;;4.87;0.87;;;;;;;;;;4904808;29;20031;-85
2023/11/25 02:53:58;;;;;;;0.88;0.47;;;;;;;;;;4911229;29;20275;-84
2023/11/25 02:56:25;;;;;;;5.72;0.80;;;;;;;;;;4911878;29;20028;-84
2023/11/25 02:58:50;;;;;;;6.30;1.25;;;;;;;;;;4909049;29;20032;-84
2023/11/25 03:01:16;;;;;;;3.95;0.95;;;;;;;;;;4914559;29;20028;-84
2023/11/25 03:03:48;;;;;;;3.85;1.02;;;;;;;;;;4907997;29;20481;-84
2023/11/25 03:06:13;;;;;;;3.60;0.57;;;;;;;;;;4911727;29;20028;-84
2023/11/25 03:08:39;;;;;;;7.75;1.10;;;;;;;;;;4908354;29;20362;-84
2023/11/25 03:11:11;;;;;;;3.47;1.00;;;;;;;;;;4910253;29;20036;-84
2023/11/25 03:13:37;;;;;;;4.68;0.70;;;;;;;;;;4914822;29;20028;-84
2023/11/25 03:16:05;;;;;;;5.32;0.88;;;;;;;;;;4912708;29;20489;-84
2023/11/25 03:18:31;;;;;;;6.82;1.08;;;;;;;;;;4927931;29;20040;-84
2023/11/25 03:20:56;;;;;;;3.38;0.90;;;;;;;;;;4928731;29;20028;-84
2023/11/25 03:23:22;;;;;;;5.63;1.05;;;;;;;;;;4911419;29;20020;-85
2023/11/25 03:25:48;;;;;;;2.15;0.60;;;;;;;;;;4908310;29;20417;-84
2023/11/25 03:28:13;;;;;;;5.20;0.77;;;;;;;;;;4928041;29;20020;-84
2023/11/25 03:30:38;;;;;;;6.70;0.90;;;;;;;;;;4905751;29;20272;-84
2023/11/25 03:33:04;;;;;;;4.32;0.80;;;;;;;;;;4907602;29;20266;-84
2023/11/25 03:35:29;;;;;;;2.78;0.90;;;;;;;;;;4906276;29;20067;-84
2023/11/25 03:37:56;;;;;;;3.15;0.68;;;;;;;;;;4919579;29;20035;-84
2023/11/25 03:40:22;;;;;;;3.17;0.90;;;;;;;;;;4903377;29;20032;-84
2023/11/25 03:42:47;;;;;;;8.18;1.40;;;;;;;;;;4913315;29;20270;-84
2023/11/25 03:45:12;;;;;;;5.07;0.80;;;;;;;;;;4913382;29;20417;-84
2023/11/25 03:47:39;;;;;;;2.35;0.80;;;;;;;;;;4926891;29;20398;-84
2023/11/25 03:50:06;;;;;;;7.50;1.08;;;;;;;;;;4911405;29;20028;-84
2023/11/25 03:52:31;;;;;;;2.05;0.82;;;;;;;;;;4929382;29;20040;-84
2023/11/25 03:54:57;;;;;;;2.17;0.87;;;;;;;;;;4931893;29;20024;-84
2023/11/25 03:57:22;;;;;;;4.97;0.70;;;;;;;;;;4914833;29;20266;-84
2023/11/25 03:59:47;;;;;;;7.73;1.00;;;;;;;;;;4930061;29;20024;-84
2023/11/25 04:02:13;;;;;;;6.88;1.10;;;;;;;;;;4914950;29;20278;-84
2023/11/25 04:04:38;;;;;;;6.32;0.95;;;;;;;;;;4910057;29;20032;-84
2023/11/25 04:07:03;;;;;;;3.50;0.82;;;;;;;;;;4916420;29;20020;-84
2023/11/25 04:09:29;;;;;;;0.60;0.50;;;;;;;;;;4930832;29;20028;-84
2023/11/25 04:11:54;;;;;;;3.37;0.60;;;;;;;;;;4914823;29;20278;-84
2023/11/25 04:14:19;;;;;;;3.70;0.50;;;;;;;;;;4931721;29;20309;-84
2023/11/25 04:16:44;;;;;;;2.57;0.93;;;;;;;;;;4928488;29;20293;-84
2023/11/25 04:19:10;;;;;;;5.05;0.85;;;;;;;;;;4916339;29;20281;-84
2023/11/25 04:21:38;;;;;;;1.13;0.43;;;;;;;;;;4915540;29;20496;-84
2023/11/25 04:24:03;;;;;;;2.92;0.65;;;;;;;;;;4931002;29;20024;-84
2023/11/25 04:26:29;;;;;;;2.38;0.60;;;;;;;;;;4921787;29;20051;-84
2023/11/25 04:28:54;;;;;;;4.23;0.90;;;;;;;;;;4916548;29;20032;-84
2023/11/25 04:31:20;;;;;;;4.30;0.90;;;;;;;;;;4916582;29;20301;-84
2023/11/25 04:33:45;;;;;;;4.13;1.00;;;;;;;;;;4915178;29;20036;-84
2023/11/25 04:36:11;;;;;;;3.35;1.02;;;;;;;;;;4908259;29;20077;-84
2023/11/25 04:38:36;;;;;;;3.92;0.70;;;;;;;;;;4898727;29;20081;-84
2023/11/25 04:41:01;;;;;;;4.20;0.87;;;;;;;;;;4903626;29;20024;-84
2023/11/25 04:43:26;;;;;;;4.72;1.23;;;;;;;;;;4915126;29;20262;-84
2023/11/25 04:45:52;;;;;;;4.70;0.97;;;;;;;;;;4909261;29;20472;-84
2023/11/25 04:48:17;;;;;;;3.85;1.05;;;;;;;;;;4912015;29;20612;-84
2023/11/25 04:50:43;;;;;;;2.50;0.90;;;;;;;;;;4914083;29;20031;-84
2023/11/25 04:53:08;;;;;;;4.70;1.13;;;;;;;;;;4924207;29;20683;-85
2023/11/25 04:55:33;;;;;;;5.23;1.37;;;;;;;;;;4915240;29;20111;-84
2023/11/25 04:57:58;;;;;;;5.77;1.60;;;;;;;;;;4910191;29;20271;-84
2023/11/25 05:00:24;;;;;;;6.20;2.47;;;;;;;;;;4913969;29;20275;-84
2023/11/25 05:02:49;;;;;;;10.27;2.47;;;;;;;;;;4915971;29;20472;-84
2023/11/25 05:05:14;;;;;;;7.05;2.10;;;;;;;;;;4914094;29;20028;-84
2023/11/25 05:07:40;;;;;;;5.43;1.63;;;;;;;;;;4919399;29;20061;-84
2023/11/25 05:10:06;;;;;;;9.98;1.80;;;;;;;;;;4909684;29;20274;-84
2023/11/25 05:12:31;;;;;;;5.28;1.58;;;;;;;;;;4913232;29;20040;-83
2023/11/25 05:14:57;;;;;;;3.25;1.40;;;;;;;;;;4926011;29;20047;-83
2023/11/25 05:17:22;;;;;;;6.17;1.60;;;;;;;;;;4922490;29;20027;-84
2023/11/25 05:19:48;;;;;;;6.55;1.50;;;;;;;;;;4911590;29;20266;-84
2023/11/25 05:22:13;;;;;;;6.07;1.40;;;;;;;;;;4929926;29;20027;-84
2023/11/25 05:24:38;;;;;;;3.70;1.07;;;;;;;;;;4914767;29;20063;-84
2023/11/25 05:27:04;;;;;;;6.83;1.60;;;;;;;;;;4922922;29;20319;-84
2023/11/25 05:29:29;;;;;;;6.03;1.85;;;;;;;;;;4915214;29;20271;-84
2023/11/25 05:31:54;;;;;;;4.07;1.60;;;;;;;;;;4930573;29;20070;-84
2023/11/25 05:34:20;;;;;;;8.93;1.50;;;;;;;;;;4912975;29;20032;-84
2023/11/25 05:36:46;;;;;;;12.35;2.30;;;;;;;;;;4913078;29;20036;-84
2023/11/25 05:39:13;;;;;;;11.02;2.63;;;;;;;;;;4913975;29;20027;-84
2023/11/25 05:41:39;;;;;;;12.60;2.00;;;;;;;;;;4915101;29;20055;-84
2023/11/25 05:44:07;;;;;;;6.35;2.55;;;;;;;;;;4920935;29;20493;-84
2023/11/25 05:46:33;;;;;;;12.15;2.20;;;;;;;;;;4903609;29;20124;-84
2023/11/25 05:48:58;;;;;;;5.00;1.55;;;;;;;;;;4912090;29;20451;-84
2023/11/25 05:51:31;;;;;;;6.67;2.07;;;;;;;;;;4907548;29;20408;-84
2023/11/25 05:53:56;;;;;;;10.13;2.40;;;;;;;;;;4927960;29;20620;-84
2023/11/25 05:56:23;;;;;;;5.87;2.03;;;;;;;;;;4928984;29;20119;-84
2023/11/25 05:58:48;;;;;;;8.52;2.10;;;;;;;;;;4913733;29;20278;-84
2023/11/25 06:01:14;;;;;;;5.38;1.88;;;;;;;;;;4929056;29;20385;-84
2023/11/25 06:03:42;;;;;;;6.80;2.00;;;;;;;;;;4914678;29;20035;-84
2023/11/25 06:06:07;;;;;;;8.35;2.33;;;;;;;;;;4914830;29;20758;-83
2023/11/25 06:08:32;;;;;;;8.63;2.27;;;;;;;;;;4914092;29;20020;-84
2023/11/25 06:10:57;;;;;;;8.13;1.70;;;;;;;;;;4928108;29;20266;-84
2023/11/25 06:13:23;;;;;;;6.80;1.40;;;;;;;;;;4910497;29;20042;-84
2023/11/25 06:15:48;;;;;;;7.80;1.55;;;;;;;;;;4903987;29;20707;-83
2023/11/25 06:18:14;;;;;;;8.80;1.90;;;;;;;;;;4914568;29;20024;-84
2023/11/25 06:20:39;;;;;;;4.65;1.50;;;;;;;;;;4912719;29;20107;-84
2023/11/25 06:23:04;;;;;;;4.60;1.60;;;;;;;;;;4909851;29;20090;-84
2023/11/25 06:25:30;;;;;;;10.47;1.80;;;;;;;;;;4908470;29;20330;-83
2023/11/25 06:27:55;;;;;;;12.30;2.87;;;;;;;;;;4911990;29;20297;-84
2023/11/25 06:30:24;;;;;;;9.00;1.60;;;;;;;;;;4911504;29;20341;-83
2023/11/25 06:32:49;;;;;;;6.57;1.77;;;;;;;;;;4925973;29;20039;-84
2023/11/25 06:35:15;;;;;;;9.20;2.27;;;;;;;;;;4913183;29;20033;-83
2023/11/25 06:37:41;;;;;;;7.78;1.85;;;;;;;;;;4913899;29;20274;-84
2023/11/25 06:40:06;;;;;;;4.20;1.40;;;;;;;;;;4922276;29;20020;-84
2023/11/25 06:42:32;;;;;;;7.78;2.17;;;;;;;;;;4907236;29;20025;-84
2023/11/25 06:44:58;;;;;;;7.35;1.77;;;;;;;;;;4916664;29;20016;-84
2023/11/25 06:47:23;;;;;;;9.70;1.55;;;;;;;;;;4930514;29;20020;-84
2023/11/25 06:49:50;;;;;;;14.32;2.28;;;;;;;;;;4923294;29;20083;-84
2023/11/25 06:52:16;;;;;;;8.00;1.83;;;;;;;;;;4911393;29;20032;-84
2023/11/25 06:54:41;;;;;;;8.68;2.00;;;;;;;;;;4911932;29;20028;-84
2023/11/25 06:57:06;;;;;;;13.97;3.27;;;;;;;;;;4914783;29;20032;-84
2023/11/25 06:59:32;;;;;;;6.83;1.67;;;;;;;;;;4911642;29;20275;-85
2023/11/25 07:01:57;;;;;;;6.20;1.80;;;;;;;;;;4912475;29;20370;-84
2023/11/25 07:04:22;;;;;;;11.13;1.75;;;;;;;;;;4908358;29;20283;-83
2023/11/25 07:06:49;;;;;;;6.90;1.80;;;;;;;;;;4911899;29;20079;-83
2023/11/25 07:09:14;;;;;;;3.17;1.38;;;;;;;;;;4908092;29;20365;-82
2023/11/25 07:11:40;;;;;;;9.23;2.50;;;;;;;;;;4910843;29;20507;-81
2023/11/25 07:14:06;;;;;;;9.25;2.17;;;;;;;;;;4913431;29;20825;-82
2023/11/25 07:16:32;;;;;;;12.18;1.90;;;;;;;;;;4909558;29;20048;-80
2023/11/25 07:18:57;;;;;;;12.82;2.35;;;;;;;;;;4923544;29;20031;-81
2023/11/25 07:21:24;;;;;;;10.52;1.95;;;;;;;;;;4911641;29;20437;-81
2023/11/25 07:23:49;;;;;;;13.32;2.55;;;;;;;;;;4918479;29;20031;-81
2023/11/25 07:26:14;;;;;;;13.07;2.20;;;;;;;;;;4925791;29;20404;-81
2023/11/25 07:28:41;;;;;;;10.73;2.33;;;;;;;;;;4913839;29;20035;-82
2023/11/25 07:31:07;;;;;;;15.88;2.63;;;;;;;;;;4932360;29;20492;-81
2023/11/25 07:33:32;;;;;;;7.90;1.77;;;;;;;;;;4914121;29;20536;-80
2023/11/25 07:35:58;;;;;;;8.70;2.13;;;;;;;;;;4901292;29;20176;-81
2023/11/25 07:38:24;;;;;;;11.68;2.47;;;;;;;;;;4930219;29;20285;-81
2023/11/25 07:40:49;;;;;;;8.93;1.90;;;;;;;;;;4930462;29;20392;-81
2023/11/25 07:43:15;;;;;;;12.10;2.50;;;;;;;;;;4932343;29;20016;-81
2023/11/25 07:45:40;;;;;;;11.23;2.95;;;;;;;;;;4918389;29;20246;-81
2023/11/25 07:48:05;;;;;;;10.02;2.42;;;;;;;;;;4916884;29;20539;-81
2023/11/25 07:50:31;;;;;;;13.30;2.45;;;;;;;;;;4910999;29;20047;-81
2023/11/25 07:52:56;;;;;;;10.63;2.87;;;;;;;;;;4910957;29;20031;-81
2023/11/25 07:55:21;;;;;;;7.53;2.00;;;;;;;;;;4932184;29;20362;-81
2023/11/25 07:57:47;;;;;;;9.75;2.60;;;;;;;;;;4914680;29;20281;-81
2023/11/25 08:00:19;;;;;;;12.25;2.75;;;;;;;;;;4928308;29;20053;-81
2023/11/25 08:02:45;;;;;;;18.48;2.80;;;;;;;;;;4909237;29;20028;-81
2023/11/25 08:05:11;;;;;;;14.73;3.08;;;;;;;;;;4907262;29;20539;-81
2023/11/25 08:07:36;;;;;;;8.85;2.28;;;;;;;;;;4916529;29;20020;-82
2023/11/25 08:10:04;;;;;;;11.45;2.60;;;;;;;;;;4915267;29;20070;-82
2023/11/25 08:12:30;;;;;;;16.70;2.35;;;;;;;;;;4910404;29;20029;-81
2023/11/25 08:14:55;;;;;;;11.13;2.72;;;;;;;;;;4913859;29;20031;-82
2023/11/25 08:17:21;;;;;;;10.35;2.50;;;;;;;;;;4929839;29;20416;-81
2023/11/25 08:19:46;;;;;;;11.83;2.63;;;;;;;;;;4913335;29;20103;-81
2023/11/25 08:22:11;;;;;;;12.88;2.58;;;;;;;;;;4922543;29;20375;-81
2023/11/25 08:24:36;;;;;;;11.77;2.72;;;;;;;;;;4930676;29;20091;-81
2023/11/25 08:27:02;;;;;;;17.17;2.70;;;;;;;;;;4910239;29;20123;-81
2023/11/25 08:29:27;;;;;;;14.82;3.10;;;;;;;;;;4917188;29;20350;-81
2023/11/25 08:31:52;;;;;;;12.63;2.77;;;;;;;;;;4916247;29;20044;-81
2023/11/25 08:34:17;;;;;;;16.07;2.27;;;;;;;;;;4931648;29;20282;-81
2023/11/25 08:36:52;;;;;;;15.57;3.03;;;;;;;;;;4912054;29;20767;-81
2023/11/25 08:39:18;;;;;;;12.88;2.55;;;;;;;;;;4913190;29;20271;-81
2023/11/25 08:41:43;;;;;;;11.88;2.17;;;;;;;;;;4915249;29;20084;-81
2023/11/25 08:44:12;;;;;;;9.57;2.30;;;;;;;;;;4911251;29;20065;-81
2023/11/25 08:46:39;;;;;;;12.88;2.53;;;;;;;;;;4912955;29;20551;-81
2023/11/25 08:49:06;;;;;;;8.10;2.30;;;;;;;;;;4915225;29;20016;-81
2023/11/25 08:51:31;;;;;;;15.63;3.00;;;;;;;;;;4916091;29;20482;-82
2023/11/25 08:53:56;;;;;;;22.70;2.43;;;;;;;;;;4916291;29;20140;-81
2023/11/25 08:56:24;;;;;;;11.80;2.63;;;;;;;;;;4925471;29;20775;-81
2023/11/25 08:58:50;;;;;;;15.85;2.45;;;;;;;;;;4925428;29;20274;-81
2023/11/25 09:01:15;;;;;;;14.37;2.93;;;;;;;;;;4924209;29;20027;-81
2023/11/25 09:03:40;;;;;;;6.43;2.43;;;;;;;;;;4909031;29;20270;-81
2023/11/25 09:06:07;;;;;;;11.73;2.17;;;;;;;;;;4930048;29;20289;-81
2023/11/25 09:08:32;;;;;;;16.73;2.72;;;;;;;;;;4902915;29;20279;-81
2023/11/25 09:10:58;;;;;;;5.05;2.00;;;;;;;;;;4912648;29;20032;-82
2023/11/25 09:13:23;;;;;;;9.93;2.10;;;;;;;;;;4915434;29;20028;-81
2023/11/25 09:15:50;;;;;;;23.33;3.25;;;;;;;;;;4915841;29;20478;-81
2023/11/25 09:18:16;;;;;;;19.85;2.58;;;;;;;;;;4909017;29;20577;-81
2023/11/25 09:20:42;;;;;;;10.90;2.47;;;;;;;;;;4914248;29;20021;-81
2023/11/25 09:23:07;;;;;;;17.40;3.17;;;;;;;;;;4905685;29;20023;-81
2023/11/25 09:25:32;;;;;;;12.50;2.47;;;;;;;;;;4907268;29;20059;-81
2023/11/25 09:27:58;;;;;;;21.00;3.10;;;;;;;;;;4911059;29;20297;-81
2023/11/25 09:30:23;;;;;;;10.55;2.20;;;;;;;;;;4915527;29;20872;-81
2023/11/25 09:32:48;;;;;;;10.83;3.20;;;;;;;;;;4929878;29;20479;-81
2023/11/25 09:35:14;;;;;;;15.52;3.42;;;;;;;;;;4904209;29;20778;-82
2023/11/25 09:37:40;;;;;;;11.63;2.90;;;;;;;;;;4915852;29;20055;-81
2023/11/25 09:40:07;;;;;;;13.18;3.45;;;;;;;;;;4914535;29;20106;-81
2023/11/25 09:42:32;;;;;;;11.30;2.50;;;;;;;;;;4922879;29;20035;-81
2023/11/25 09:45:00;;;;;;;21.17;3.50;;;;;;;;;;4914320;29;20020;-81
2023/11/25 09:47:26;;;;;;;20.67;4.18;;;;;;;;;;4910539;29;20043;-81
2023/11/25 09:49:52;;;;;;;18.90;3.60;;;;;;;;;;4915146;29;20020;-81
2023/11/25 09:52:18;;;;;;;15.65;3.17;;;;;;;;;;4908833;29;20031;-82
2023/11/25 09:54:44;;;;;;;14.23;4.03;;;;;;;;;;4911402;29;20405;-81
2023/11/25 09:57:11;;;;;;;14.63;3.22;;;;;;;;;;4922302;29;20024;-81
2023/11/25 09:59:36;;;;;;;13.95;2.67;;;;;;;;;;4910363;29;20115;-81
2023/11/25 10:02:02;;;;;;;14.45;3.40;;;;;;;;;;4912296;29;20073;-81
2023/11/25 10:04:28;;;;;;;11.23;2.80;;;;;;;;;;4922880;29;20060;-81
2023/11/25 10:06:54;;;;;;;13.15;2.90;;;;;;;;;;4912689;29;20122;-81
2023/11/25 10:09:21;;;;;;;17.75;3.67;;;;;;;;;;4928882;29;20031;-81
2023/11/25 10:11:47;;;;;;;12.57;2.78;;;;;;;;;;4929374;29;20040;-81
2023/11/25 10:14:13;;;;;;;18.48;3.88;;;;;;;;;;4912394;29;20024;-81
2023/11/25 10:16:41;;;;;;;17.08;2.72;;;;;;;;;;4913626;29;20488;-81
2023/11/25 10:19:16;;;;;;;14.52;3.42;;;;;;;;;;4923873;29;20461;-82
2023/11/25 10:21:41;;;;;;;22.85;3.92;;;;;;;;;;4924761;29;20028;-81
2023/11/25 10:24:06;;;;;;;15.13;2.75;;;;;;;;;;4912775;29;20512;-81
2023/11/25 10:26:32;;;;;;;8.02;2.63;;;;;;;;;;4927680;29;20067;-81
2023/11/25 10:28:58;;;;;;;15.50;3.53;;;;;;;;;;4912474;29;20052;-81
2023/11/25 10:31:23;;;;;;;17.58;3.67;;;;;;;;;;4927655;29;20031;-81
2023/11/25 10:33:55;;;;;;;14.68;3.58;;;;;;;;;;4914337;29;20021;-81
2023/11/25 10:36:20;;;;;;;16.40;3.50;;;;;;;;;;4913013;29;20035;-81
2023/11/25 10:38:45;;;;;;;7.70;2.20;;;;;;;;;;4912523;29;20028;-81
2023/11/25 10:41:11;;;;;;;11.80;2.87;;;;;;;;;;4914698;29;20027;-81
2023/11/25 10:43:36;;;;;;;12.82;3.38;;;;;;;;;;4913795;29;20279;-81
2023/11/25 10:46:05;;;;;;;19.42;2.85;;;;;;;;;;4912383;29;20444;-81
2023/11/25 10:48:32;;;;;;;18.85;3.60;;;;;;;;;;4912752;29;20028;-81
2023/11/25 10:50:58;;;;;;;13.13;3.25;;;;;;;;;;4915101;29;20044;-81
2023/11/25 10:53:26;;;;;;;12.63;3.25;;;;;;;;;;4928773;29;20028;-81
2023/11/25 10:55:53;;;;;;;16.08;3.05;;;;;;;;;;4906907;29;20101;-81
2023/11/25 10:58:19;;;;;;;14.93;3.45;;;;;;;;;;4906137;29;20039;-82
2023/11/25 11:00:44;;;;;;;12.50;3.28;;;;;;;;;;4914072;29;20036;-81
2023/11/25 11:03:12;;;;;;;13.83;3.40;;;;;;;;;;4907997;29;20023;-81
2023/11/25 11:05:43;;;;;;;12.60;3.90;;;;;;;;;;4910119;29;20704;-81
2023/11/25 11:08:29;;;;;;;15.30;3.40;;;;;;;;;;4911855;29;20075;-81
2023/11/25 11:10:56;;;;;;;16.25;2.80;;;;;;;;;;4910429;29;20044;-80
2023/11/25 11:13:42;;;;;;;15.75;3.42;;;;;;;;;;4918122;29;20052;-81
2023/11/25 11:16:10;;;;;;;13.18;3.45;;;;;;;;;;4916012;29;20499;-81
2023/11/25 11:18:39;;;;;;;13.77;3.33;;;;;;;;;;4930315;29;20488;-81
2023/11/25 11:21:05;;;;;;;15.63;3.80;;;;;;;;;;4917083;29;20084;-81
2023/11/25 11:23:36;;;;;;;11.57;3.65;;;;;;;;;;4916886;29;20024;-82
2023/11/25 11:26:23;;;;;;;15.98;3.33;;;;;;;;;;4911758;29;20043;-81
2023/11/25 11:28:55;;;;;;;9.68;3.58;;;;;;;;;;4901401;29;20032;-82
2023/11/25 11:31:40;;;;;;;10.18;3.60;;;;;;;;;;4919027;29;20388;-81
2023/11/25 11:34:06;;;;;;;10.60;3.53;;;;;;;;;;4926193;29;20551;-79
2023/11/25 11:36:34;;;;;;;13.88;3.65;;;;;;;;;;4932181;29;20472;-79
2023/11/25 11:39:01;;;;;;;20.80;4.55;;;;;;;;;;4921956;29;20036;-79
2023/11/25 11:41:29;;;;;;;21.10;3.67;;;;;;;;;;4907225;29;20107;-79
2023/11/25 11:44:05;;;;;;;15.95;3.70;;;;;;;;;;4913480;29;20024;-80
2023/11/25 11:46:41;;;;;;;18.55;4.35;;;;;;;;;;4931871;29;20036;-79
2023/11/25 11:49:07;;;;;;;16.08;4.38;;;;;;;;;;4921981;29;20639;-79
2023/11/25 11:51:33;;;;;;;12.57;4.40;;;;;;;;;;4904342;29;20024;-79
2023/11/25 11:54:34;;;;;;;9.63;3.33;;;;;;;;;;4917407;29;20087;-79
2023/11/25 11:57:03;;;;;;;17.55;4.50;;;;;;;;;;4842537;29;20026;-79
2023/11/25 11:59:46;;;;;;;12.13;4.20;;;;;;;;;;4891086;29;20048;-80
2023/11/25 12:02:12;;;;;;;15.70;4.05;;;;;;;;;;4909924;29;20407;-80
2023/11/25 12:04:37;;;;;;;16.80;3.58;;;;;;;;;;4928982;29;20028;-81
2023/11/25 12:07:02;;;;;;;13.88;4.47;;;;;;;;;;4912227;29;20020;-80
2023/11/25 12:09:27;;;;;;;15.90;3.42;;;;;;;;;;4927958;29;20024;-80
2023/11/25 12:12:00;;;;;;;11.20;3.47;;;;;;;;;;4910744;29;20107;-79
2023/11/25 12:14:25;;;;;;;;;;;;;;;;;;4915678;29;20336;-80
2023/11/25 12:16:50;;;;;;;12.85;3.92;;;;;;;;;;4915749;29;19910;-79
2023/11/25 12:19:15;;;;;;;9.17;3.47;;;;;;;;;;4924923;29;20024;-80
2023/11/25 12:21:41;;;;;;;7.32;3.80;;;;;;;;;;4912443;29;20275;-79
2023/11/25 12:24:11;;;;;;;13.52;3.45;;;;;;;;;;4911014;29;20024;-80
2023/11/25 12:26:37;;;;;;;9.68;3.40;;;;;;;;;;4912589;29;20122;-79
2023/11/25 12:29:03;;;;;;;17.40;3.38;;;;;;;;;;4917239;29;20024;-80
2023/11/25 12:31:29;;;;;;;11.40;3.03;;;;;;;;;;4926196;29;20028;-79
2023/11/25 12:33:55;;;;;;;11.03;3.03;;;;;;;;;;4908235;29;20103;-80
2023/11/25 12:36:22;;;;;;;10.20;3.30;;;;;;;;;;4931028;29;20274;-80
2023/11/25 12:38:47;;;;;;;8.82;3.13;;;;;;;;;;4924967;29;20115;-80
2023/11/25 12:41:15;;;;;;;13.77;3.38;;;;;;;;;;4912675;29;20119;-79
2023/11/25 12:43:59;;;;;;;8.95;2.72;;;;;;;;;;4916393;29;20384;-79
2023/11/25 12:46:24;;;;;;;8.38;2.67;;;;;;;;;;4926345;29;20035;-80
2023/11/25 12:48:49;;;;;;;6.53;2.60;;;;;;;;;;4912612;29;20024;-80
2023/11/25 12:51:14;;;;;;;9.10;2.50;;;;;;;;;;4930846;29;20277;-79
2023/11/25 12:53:53;;;;;;;6.68;2.58;;;;;;;;;;4909967;29;20266;-80
2023/11/25 12:56:19;;;;;;;7.20;2.60;;;;;;;;;;4923652;29;20116;-80
2023/11/25 12:58:44;;;;;;;7.72;2.17;;;;;;;;;;4916363;29;20127;-79
2023/11/25 13:01:10;;;;;;;4.07;2.08;;;;;;;;;;4914111;29;20043;-79
2023/11/25 13:03:36;;;;;;;4.45;2.00;;;;;;;;;;4914152;29;20571;-80
2023/11/25 13:06:04;;;;;;;5.85;1.92;;;;;;;;;;4930116;29;20027;-80
2023/11/25 13:08:31;;;;;;;4.75;2.15;;;;;;;;;;4926093;29;20396;-80
2023/11/25 13:10:58;;;;;;;4.97;1.90;;;;;;;;;;4916489;29;20023;-80
2023/11/25 13:13:27;;;;;;;4.70;2.13;;;;;;;;;;4930551;29;20031;-80
2023/11/25 13:15:55;;;;;;;5.03;2.08;;;;;;;;;;4914135;29;20028;-80
2023/11/25 13:18:21;;;;;;;8.45;2.35;;;;;;;;;;4930743;29;20076;-80
2023/11/25 13:20:47;;;;;;;5.95;2.13;;;;;;;;;;4911900;29;20078;-80
2023/11/25 13:23:12;;;;;;;7.63;2.30;;;;;;;;;;4908998;29;20020;-80
2023/11/25 13:25:38;;;;;;;6.93;2.35;;;;;;;;;;4930194;29;20028;-80
2023/11/25 13:28:03;;;;;;;8.27;2.10;;;;;;;;;;4915134;29;20028;-80
2023/11/25 13:30:29;;;;;;;5.93;2.47;;;;;;;;;;4931757;29;20311;-80
2023/11/25 13:32:55;;;;;;;8.05;2.03;;;;;;;;;;4930257;29;20024;-80
2023/11/25 13:35:20;;;;;;;8.52;2.10;;;;;;;;;;4905837;29;20335;-80
2023/11/25 13:37:45;;;;;;;9.18;2.65;;;;;;;;;;4915725;29;20421;-80
2023/11/25 13:40:15;;;;;;;6.03;2.13;;;;;;;;;;4901131;29;20024;-80
2023/11/25 13:42:40;;;;;;;9.57;3.28;;;;;;;;;;4907501;29;20024;-80
2023/11/25 13:45:09;;;;;;;8.05;2.80;;;;;;;;;;4916172;29;20099;-80
2023/11/25 13:47:35;;;;;;;9.25;2.33;;;;;;;;;;4904668;29;20016;-80
2023/11/25 13:50:00;;;;;;;10.88;2.65;;;;;;;;;;4911962;29;20017;-80
2023/11/25 13:52:25;;;;;;;6.20;2.27;;;;;;;;;;4911291;29;20036;-80
2023/11/25 13:54:50;;;;;;;5.47;2.40;;;;;;;;;;4913955;29;20278;-79
2023/11/25 13:57:16;;;;;;;10.00;2.03;;;;;;;;;;4910558;29;20096;-80
2023/11/25 13:59:41;;;;;;;6.78;2.10;;;;;;;;;;4905270;29;20628;-81
2023/11/25 14:02:07;;;;;;;5.45;1.77;;;;;;;;;;4911227;29;20029;-80
2023/11/25 14:04:32;;;;;;;6.47;1.58;;;;;;;;;;4903276;29;20055;-80
2023/11/25 14:06:59;;;;;;;6.85;2.38;;;;;;;;;;4906911;29;20025;-80
2023/11/25 14:09:26;;;;;;;5.47;1.70;;;;;;;;;;4911800;29;20024;-80
2023/11/25 14:11:51;;;;;;;5.82;1.73;;;;;;;;;;4907529;29;20055;-80
2023/11/25 14:14:17;;;;;;;3.97;1.70;;;;;;;;;;4914276;29;20055;-81
2023/11/25 14:16:47;;;;;;;2.83;1.60;;;;;;;;;;4924659;29;20024;-80
2023/11/25 14:19:12;;;;;;;4.18;2.15;;;;;;;;;;4914877;29;20266;-80
2023/11/25 14:21:37;;;;;;;5.22;1.70;;;;;;;;;;4929069;29;20035;-81
2023/11/25 14:24:04;;;;;;;3.63;1.70;;;;;;;;;;4922546;29;20024;-78
2023/11/25 14:26:29;;;;;;;5.78;1.70;;;;;;;;;;4905124;29;20044;-77
2023/11/25 14:28:55;;;;;;;4.70;1.60;;;;;;;;;;4921289;29;20436;-78
2023/11/25 14:31:20;;;;;;;3.13;1.60;;;;;;;;;;4913911;29;20028;-79
2023/11/25 14:33:45;;;;;;;4.70;1.63;;;;;;;;;;4906170;29;20223;-79